createdAt,value
2018-10-11T00:01:45.085Z,101620.28
2018-10-11T00:06:49.623Z,101624.66
2018-10-11T00:11:52.798Z,101624.16
2018-10-11T00:16:56.357Z,101627.03
2018-10-11T00:21:59.616Z,101634.25
2018-10-11T00:27:03.175Z,101628.88
2018-10-11T00:32:07.101Z,101629.39
2018-10-11T00:37:10.970Z,101629.05
2018-10-11T00:42:14.833Z,101619.95
2018-10-11T00:47:18.522Z,101621.65
2018-10-11T00:52:21.735Z,101610.36
2018-10-11T00:57:24.887Z,101589.02
2018-10-11T01:02:28.114Z,101593.88
2018-10-11T01:07:31.415Z,101600.22
2018-10-11T01:12:35.533Z,101598.18
2018-10-11T01:17:39.614Z,101587.57
2018-10-11T01:22:43.652Z,101592.59
2018-10-11T01:27:47.708Z,101599.98
2018-10-11T01:32:51.069Z,101606.64
2018-10-11T01:37:54.366Z,101605.59
2018-10-11T01:43:00.622Z,101601.60
2018-10-11T01:48:04.376Z,101597.35
2018-10-11T01:53:07.625Z,101601.16
2018-10-11T01:58:10.822Z,101589.78
2018-10-11T02:03:14.313Z,101588.55
2018-10-11T02:08:17.887Z,101575.98
2018-10-11T02:13:21.411Z,101569.77
2018-10-11T02:18:24.704Z,101563.25
2018-10-11T02:23:28.055Z,101562.05
2018-10-11T02:28:31.264Z,101557.22
2018-10-11T02:33:35.623Z,101555.17
2018-10-11T02:38:39.494Z,101550.38
2018-10-11T02:43:44.012Z,101541.16
2018-10-11T02:48:48.257Z,101548.87
2018-10-11T02:53:52.127Z,101553.45
2018-10-11T02:59:06.596Z,101553.28
2018-10-11T03:04:10.109Z,101532.50
2018-10-11T03:09:13.836Z,101541.07
2018-10-11T03:14:18.104Z,101537.05
2018-10-11T03:19:21.797Z,101533.20
2018-10-11T03:24:25.028Z,101529.19
2018-10-11T03:29:28.515Z,101537.47
2018-10-11T03:34:31.686Z,101524.70
2018-10-11T03:39:34.838Z,101528.70
2018-10-11T03:44:38.123Z,101537.52
2018-10-11T03:49:41.408Z,101523.27
2018-10-11T03:54:45.086Z,101522.06
2018-10-11T03:59:51.124Z,101517.20
2018-10-11T04:04:55.254Z,101519.52
2018-10-11T04:09:59.014Z,101508.18
2018-10-11T04:15:02.648Z,101495.44
2018-10-11T04:20:05.865Z,101490.28
2018-10-11T04:25:09.940Z,101482.45
2018-10-11T04:30:15.867Z,101480.76
2018-10-11T04:35:19.576Z,101469.42
2018-10-11T04:40:23.468Z,101468.11
2018-10-11T04:45:27.182Z,101479.19
2018-10-11T04:50:30.660Z,101481.77
2018-10-11T04:55:34.967Z,101482.56
2018-10-11T05:00:48.561Z,101486.23
2018-10-11T05:05:54.869Z,101487.52
2018-10-11T05:10:58.103Z,101484.37
2018-10-11T05:16:01.906Z,101474.88
2018-10-11T05:21:05.274Z,101482.89
2018-10-11T05:26:08.636Z,101482.54
2018-10-11T05:31:12.510Z,101480.12
2018-10-11T05:36:16.014Z,101466.45
2018-10-11T05:41:20.531Z,101465.92
2018-10-11T05:46:28.578Z,101467.24
2018-10-11T05:51:33.252Z,101469.98
2018-10-11T05:56:39.719Z,101474.36
2018-10-11T06:01:43.487Z,101477.81
2018-10-11T06:06:48.235Z,101475.91
2018-10-11T06:11:52.100Z,101470.52
2018-10-11T06:16:57.821Z,101471.58
2018-10-11T06:22:01.442Z,101475.08
2018-10-11T06:27:07.392Z,101469.91
2018-10-11T06:32:10.810Z,101458.75
2018-10-11T06:37:14.231Z,101462.34
2018-10-11T06:42:17.865Z,101476.02
2018-10-11T06:47:21.113Z,101479.39
2018-10-11T06:52:24.521Z,101488.97
2018-10-11T06:57:27.663Z,101486.12
2018-10-11T07:02:31.903Z,101491.30
2018-10-11T07:07:35.872Z,101493.56
2018-10-11T07:12:39.455Z,101491.19
2018-10-11T07:17:42.559Z,101479.77
2018-10-11T07:22:45.819Z,101457.77
2018-10-11T07:27:49.070Z,101482.24
2018-10-11T07:32:52.328Z,101484.13
2018-10-11T07:37:55.605Z,101478.39
2018-10-11T07:42:59.413Z,101492.47
2018-10-11T07:48:02.858Z,101492.73
2018-10-11T07:53:06.034Z,101490.00
2018-10-11T07:58:09.341Z,101482.63
2018-10-11T08:03:12.640Z,101488.87
2018-10-11T08:08:16.703Z,101492.60
2018-10-11T08:13:20.000Z,101494.32
2018-10-11T08:18:23.383Z,101488.27
2018-10-11T08:23:26.503Z,101489.92
2018-10-11T08:28:29.654Z,101477.77
2018-10-11T08:33:32.850Z,101479.02
2018-10-11T08:38:36.216Z,101476.03
2018-10-11T08:43:39.792Z,101491.98
2018-10-11T08:48:43.431Z,101491.13
2018-10-11T08:53:46.795Z,101492.98
2018-10-11T08:58:50.315Z,101501.25
2018-10-11T09:03:53.743Z,101488.97
2018-10-11T09:08:56.703Z,101485.23
2018-10-11T09:13:59.925Z,101491.20
2018-10-11T09:19:03.152Z,101494.77
2018-10-11T09:24:06.791Z,101494.77
2018-10-11T09:29:10.023Z,101491.30
2018-10-11T09:34:13.266Z,101488.72
2018-10-11T09:39:16.537Z,101481.98
2018-10-11T09:44:19.792Z,101471.02
2018-10-11T09:49:23.158Z,101479.61
2018-10-11T09:54:26.387Z,101469.05
2018-10-11T09:59:31.027Z,101476.59
2018-10-11T10:04:34.361Z,101475.55
2018-10-11T10:09:37.541Z,101481.16
2018-10-11T10:14:40.802Z,101483.27
2018-10-11T10:19:44.085Z,101482.38
2018-10-11T10:24:47.551Z,101480.20
2018-10-11T10:29:50.800Z,101458.81
2018-10-11T10:34:54.039Z,101451.14
2018-10-11T10:39:57.246Z,101433.05
2018-10-11T10:45:00.709Z,101432.86
2018-10-11T10:50:03.990Z,101438.75
2018-10-11T10:55:07.213Z,101433.27
2018-10-11T11:00:10.440Z,101430.42
2018-10-11T11:05:13.697Z,101414.09
2018-10-11T11:10:17.075Z,101412.11
2018-10-11T11:15:20.464Z,101410.27
2018-10-11T11:20:23.908Z,101398.94
2018-10-11T11:25:27.074Z,101384.86
2018-10-11T11:30:30.251Z,101374.86
2018-10-11T11:35:33.735Z,101383.88
2018-10-11T11:40:36.890Z,101389.39
2018-10-11T11:45:40.104Z,101385.81
2018-10-11T11:50:43.361Z,101380.34
2018-10-11T11:55:46.679Z,101369.99
2018-10-11T12:00:49.920Z,101363.92
2018-10-11T12:05:53.202Z,101381.63
2018-10-11T12:10:56.390Z,101372.66
2018-10-11T12:15:59.525Z,101384.17
2018-10-11T12:21:02.827Z,101367.72
2018-10-11T12:26:06.326Z,101357.26
2018-10-11T12:31:09.503Z,101353.27
2018-10-11T12:36:12.818Z,101353.20
2018-10-11T12:41:16.150Z,101350.17
2018-10-11T12:46:19.519Z,101345.63
2018-10-11T12:51:22.837Z,101335.19
2018-10-11T12:56:26.328Z,101337.59
2018-10-11T13:01:29.443Z,101331.87
2018-10-11T13:06:32.660Z,101332.37
2018-10-11T13:11:35.859Z,101326.53
2018-10-11T13:16:39.095Z,101325.48
2018-10-11T13:21:44.372Z,101316.27
2018-10-11T13:26:47.851Z,101316.59
2018-10-11T13:31:51.324Z,101317.97
2018-10-11T13:36:54.688Z,101324.05
2018-10-11T13:41:57.931Z,101320.45
2018-10-11T13:47:01.083Z,101309.64
2018-10-11T13:52:04.448Z,101296.23
2018-10-11T13:57:07.771Z,101300.20
2018-10-11T14:02:10.905Z,101298.45
2018-10-11T14:07:14.384Z,101289.33
2018-10-11T14:12:17.731Z,101289.10
2018-10-11T14:17:20.910Z,101279.84
2018-10-11T14:22:24.168Z,101280.15
2018-10-11T14:27:27.368Z,101284.80
2018-10-11T14:32:30.616Z,101288.87
2018-10-11T14:37:33.789Z,101284.37
2018-10-11T14:42:37.096Z,101276.39
2018-10-11T14:47:40.252Z,101264.52
2018-10-11T14:52:43.562Z,101266.49
2018-10-11T14:57:46.892Z,101266.25
2018-10-11T15:02:50.454Z,101270.44
2018-10-11T15:07:53.626Z,101273.43
2018-10-11T15:12:56.772Z,101272.27
2018-10-11T15:17:59.958Z,101274.66
2018-10-11T15:23:03.174Z,101274.31
2018-10-11T15:28:07.339Z,101270.86
2018-10-11T15:33:10.541Z,101281.59
2018-10-11T15:38:13.817Z,101281.03
2018-10-11T15:43:17.364Z,101286.91
2018-10-11T15:48:20.678Z,101279.38
2018-10-11T15:53:24.028Z,101279.03
2018-10-11T15:58:27.244Z,101286.73
2018-10-11T16:03:30.555Z,101286.28
2018-10-11T16:08:33.734Z,101295.24
2018-10-11T16:13:36.917Z,101297.69
2018-10-11T16:18:40.276Z,101301.58
2018-10-11T16:23:44.058Z,101309.20
2018-10-11T16:28:47.773Z,101308.98
2018-10-11T16:33:51.649Z,101320.67
2018-10-11T16:38:54.850Z,101313.70
2018-10-11T16:43:58.158Z,101315.37
2018-10-11T16:49:01.395Z,101312.47
2018-10-11T16:54:04.625Z,101311.94
2018-10-11T16:59:07.839Z,101319.76
2018-10-11T17:04:11.372Z,101322.45
2018-10-11T17:09:14.590Z,101325.55
2018-10-11T17:14:18.907Z,101329.14
2018-10-11T17:19:22.553Z,101326.64
2018-10-11T17:24:25.797Z,101321.63
2018-10-11T17:29:29.081Z,101319.94
2018-10-11T17:34:32.230Z,101316.20
2018-10-11T17:39:35.778Z,101324.77
2018-10-11T17:44:39.070Z,101319.22
2018-10-11T17:49:42.436Z,101319.84
2018-10-11T17:54:46.030Z,101315.27
2018-10-11T17:59:49.288Z,101327.11
2018-10-11T18:04:52.776Z,101324.66
2018-10-11T18:09:56.118Z,101325.64
2018-10-11T18:14:59.483Z,101327.38
2018-10-11T18:20:03.399Z,101339.51
2018-10-11T18:25:06.925Z,101342.33
2018-10-11T18:30:10.370Z,101338.83
2018-10-11T18:35:13.792Z,101337.26
2018-10-11T18:40:17.271Z,101335.30
2018-10-11T18:45:21.404Z,101327.02
2018-10-11T18:50:24.697Z,101324.94
2018-10-11T18:55:28.159Z,101339.36
2018-10-11T19:00:31.558Z,101346.54
2018-10-11T19:05:34.954Z,101357.94
2018-10-11T19:10:38.453Z,101355.46
2018-10-11T19:15:42.674Z,101362.44
2018-10-11T19:20:46.756Z,101368.67
2018-10-11T19:25:50.666Z,101377.06
2018-10-11T19:30:53.987Z,101369.01
2018-10-11T19:35:57.176Z,101366.16
2018-10-11T19:41:00.521Z,101376.51
2018-10-11T19:46:03.908Z,101367.43
2018-10-11T19:51:07.138Z,101378.59
2018-10-11T19:56:10.375Z,101386.90
2018-10-11T20:01:13.623Z,101391.98
2018-10-11T20:06:16.916Z,101397.21
2018-10-11T20:11:21.621Z,101404.78
2018-10-11T20:16:25.171Z,101400.44
2018-10-11T20:21:28.505Z,101409.00
2018-10-11T20:26:31.867Z,101411.52
2018-10-11T20:31:35.196Z,101413.37
2018-10-11T20:36:38.396Z,101419.75
2018-10-11T20:41:41.735Z,101423.60
2018-10-11T20:46:44.881Z,101418.05
2018-10-11T20:51:48.446Z,101426.80
2018-10-11T20:56:51.751Z,101427.81
2018-10-11T21:01:54.998Z,101437.05
2018-10-11T21:06:58.237Z,101446.08
2018-10-11T21:12:01.968Z,101441.39
2018-10-11T21:17:06.705Z,101441.70
2018-10-11T21:22:11.205Z,101448.03
2018-10-11T21:27:15.020Z,101447.77
2018-10-11T21:32:18.824Z,101447.75
2018-10-11T21:37:23.206Z,101454.08
2018-10-11T21:42:27.779Z,101451.57
2018-10-11T21:47:31.420Z,101453.58
2018-10-11T21:52:34.964Z,101453.52
2018-10-11T21:57:38.759Z,101454.73
2018-10-11T22:02:42.010Z,101452.38
2018-10-11T22:07:45.382Z,101450.56
2018-10-11T22:12:48.575Z,101454.63
2018-10-11T22:17:51.744Z,101460.86
2018-10-11T22:22:54.930Z,101459.92
2018-10-11T22:27:58.171Z,101461.91
2018-10-11T22:33:01.453Z,101465.81
2018-10-11T22:38:04.622Z,101467.83
2018-10-11T22:43:07.905Z,101469.29
2018-10-11T22:48:11.266Z,101458.95
2018-10-11T22:53:14.756Z,101464.95
2018-10-11T22:58:17.974Z,101463.03
2018-10-11T23:03:21.142Z,101461.91
2018-10-11T23:08:24.366Z,101463.03
2018-10-11T23:13:27.510Z,101456.83
2018-10-11T23:18:30.744Z,101463.70
2018-10-11T23:23:33.954Z,101467.09
2018-10-11T23:28:37.153Z,101475.88
2018-10-11T23:33:40.463Z,101480.64
2018-10-11T23:38:44.068Z,101485.91
2018-10-11T23:43:47.181Z,101483.90
2018-10-11T23:48:50.423Z,101490.48
2018-10-11T23:53:54.115Z,101482.94
2018-10-11T23:58:57.308Z,101480.14
